Terminal Aerodrome Forecast
Issued by NWS

Home | Current Version | Previous Version | Text Only | Print | Product List | Glossary On
Versions: 1 2 3 4 5 6 7 8 9 10 11 12 13 14 15 16 17 18 19
000
FTUS45 KTFX 301731
TAFBZN
TAF
KBZN 301731Z 3018/3118 VRB05KT P6SM BKN100
     FM301900 VRB05KT P6SM VCSH BKN090
     FM302100 VRB05KT P6SM -SHRA OVC060
      TEMPO 3021/3023 VRB20G30KT 5SM TSRA OVC040CB
     FM302300 27008KT P6SM VCSH SCT060 BKN080
      TEMPO 3023/3102 -TSRA OVC040CB
     FM310400 VRB04KT P6SM BKN250
     FM311300 VRB05KT P6SM VCSH OVC080=

USA.gov is the U.S. government's official web portal to all federal, state and local government web resources and services.